createdAt,value
2018-04-29T00:02:10.504Z,7.97
2018-04-29T00:04:40.768Z,7.83
2018-04-29T00:07:09.495Z,10.20
2018-04-29T00:09:39.763Z,8.33
2018-04-29T00:12:08.499Z,6.83
2018-04-29T00:14:37.828Z,10.10
2018-04-29T00:17:07.510Z,9.60
2018-04-29T00:19:37.803Z,11.10
2018-04-29T00:22:07.665Z,11.83
2018-04-29T00:24:36.597Z,16.00
2018-04-29T00:27:05.506Z,9.67
2018-04-29T00:29:35.934Z,12.10
2018-04-29T00:32:04.862Z,9.67
2018-04-29T00:34:34.534Z,10.30
2018-04-29T00:37:04.224Z,8.80
2018-04-29T00:39:33.546Z,10.73
2018-04-29T00:42:03.211Z,8.03
2018-04-29T00:44:32.152Z,10.63
2018-04-29T00:47:01.465Z,8.93
2018-04-29T00:49:30.409Z,10.80
2018-04-29T00:52:06.850Z,7.80
2018-04-29T00:54:37.113Z,7.40
2018-04-29T00:57:07.153Z,9.30
2018-04-29T00:59:36.266Z,9.60
2018-04-29T01:02:05.177Z,9.33
2018-04-29T01:04:34.119Z,9.20
2018-04-29T01:07:03.394Z,9.80
2018-04-29T01:09:33.665Z,8.77
2018-04-29T01:12:03.146Z,9.97
2018-04-29T01:14:32.852Z,8.80
2018-04-29T01:17:02.538Z,8.60
2018-04-29T01:19:32.791Z,9.83
2018-04-29T01:22:02.389Z,8.70
2018-04-29T01:24:31.708Z,10.10
2018-04-29T01:27:01.970Z,8.33
2018-04-29T01:29:30.698Z,10.73
2018-04-29T01:32:00.019Z,9.67
2018-04-29T01:34:28.968Z,8.73
2018-04-29T01:36:59.433Z,10.60
2018-04-29T01:39:29.100Z,11.10
2018-04-29T01:41:58.052Z,11.80
2018-04-29T01:44:26.976Z,8.60
2018-04-29T01:46:57.258Z,10.33
2018-04-29T01:49:25.970Z,9.83
2018-04-29T01:51:54.916Z,11.30
2018-04-29T01:54:25.027Z,9.80
2018-04-29T01:56:55.146Z,9.60
2018-04-29T01:59:24.043Z,8.30
2018-04-29T02:01:54.310Z,9.70
2018-04-29T02:04:23.405Z,11.97
2018-04-29T02:06:53.456Z,10.97
2018-04-29T02:09:22.381Z,10.07
2018-04-29T02:11:52.071Z,9.73
2018-04-29T02:14:21.759Z,13.40
2018-04-29T02:16:50.685Z,10.63
2018-04-29T02:19:20.370Z,15.40
2018-04-29T02:21:50.067Z,9.73
2018-04-29T02:24:20.501Z,9.63
2018-04-29T02:26:49.419Z,10.97
2018-04-29T02:29:18.349Z,11.00
2018-04-29T02:31:47.687Z,13.57
2018-04-29T02:34:16.592Z,7.83
2018-04-29T02:36:46.880Z,12.17
2018-04-29T02:39:16.022Z,12.43
2018-04-29T02:41:46.292Z,8.13
2018-04-29T02:44:15.765Z,14.77
2018-04-29T02:46:44.679Z,10.60
2018-04-29T02:49:13.591Z,10.70
2018-04-29T02:51:43.874Z,15.83
2018-04-29T02:54:12.586Z,12.07
2018-04-29T02:56:42.627Z,12.73
2018-04-29T02:59:11.573Z,9.67
2018-04-29T03:01:40.575Z,10.37
2018-04-29T03:04:09.491Z,11.27
2018-04-29T03:06:39.537Z,10.37
2018-04-29T03:09:09.822Z,11.47
2018-04-29T03:11:38.517Z,10.40
2018-04-29T03:14:07.463Z,12.03
2018-04-29T03:16:36.370Z,11.40
2018-04-29T03:19:05.293Z,11.93
2018-04-29T03:21:34.226Z,10.03
2018-04-29T03:24:03.150Z,11.50
2018-04-29T03:26:33.574Z,9.60
2018-04-29T03:29:03.279Z,8.83
2018-04-29T03:31:32.198Z,13.43
2018-04-29T03:34:01.525Z,11.57
2018-04-29T03:36:31.232Z,10.57
2018-04-29T03:39:00.942Z,13.27
2018-04-29T03:41:30.337Z,13.17
2018-04-29T03:43:59.656Z,12.63
2018-04-29T03:46:30.117Z,12.70
2018-04-29T03:49:00.018Z,14.60
2018-04-29T03:51:28.935Z,9.53
2018-04-29T03:53:57.845Z,9.90
2018-04-29T03:56:26.779Z,12.97
2018-04-29T03:59:07.496Z,10.17
2018-04-29T04:01:51.283Z,11.30
2018-04-29T04:04:18.367Z,13.97
2018-04-29T04:06:47.313Z,12.87
2018-04-29T04:09:16.975Z,10.23
2018-04-29T04:11:45.903Z,12.70
2018-04-29T04:14:15.571Z,12.53
2018-04-29T04:16:45.863Z,13.80
2018-04-29T04:19:14.563Z,11.97
2018-04-29T04:21:43.508Z,13.63
2018-04-29T04:24:12.408Z,14.90
2018-04-29T04:26:42.721Z,10.80
2018-04-29T04:29:11.459Z,13.53
2018-04-29T04:31:40.393Z,13.23
2018-04-29T04:34:10.479Z,9.97
2018-04-29T04:36:39.377Z,13.00
2018-04-29T04:39:08.709Z,11.60
2018-04-29T04:41:38.393Z,12.40
2018-04-29T04:44:07.335Z,12.87
2018-04-29T04:46:37.393Z,12.80
2018-04-29T04:49:06.345Z,15.23
2018-04-29T04:51:36.598Z,13.30
2018-04-29T04:54:05.322Z,11.83
2018-04-29T04:56:35.602Z,13.70
2018-04-29T04:59:04.330Z,14.57
2018-04-29T05:01:34.013Z,14.63
2018-04-29T05:04:02.948Z,14.67
2018-04-29T05:06:31.859Z,14.67
2018-04-29T05:09:00.784Z,18.43
2018-04-29T05:11:30.501Z,12.60
2018-04-29T05:14:00.585Z,15.87
2018-04-29T05:16:29.904Z,16.10
2018-04-29T05:18:58.854Z,17.10
2018-04-29T05:21:29.236Z,16.97
2018-04-29T05:23:58.632Z,13.80
2018-04-29T05:26:29.083Z,16.90
2018-04-29T05:28:58.384Z,15.70
2018-04-29T05:31:28.075Z,12.47
2018-04-29T05:33:57.755Z,15.07
2018-04-29T05:36:27.467Z,14.70
2018-04-29T05:38:57.727Z,14.70
2018-04-29T05:41:26.445Z,15.07
2018-04-29T05:43:55.375Z,17.30
2018-04-29T05:46:24.813Z,15.90
2018-04-29T05:48:54.460Z,13.87
2018-04-29T05:51:24.439Z,16.47
2018-04-29T05:53:55.440Z,13.53
2018-04-29T05:56:24.758Z,13.10
2018-04-29T05:58:54.497Z,17.40
2018-04-29T06:01:24.776Z,16.93
2018-04-29T06:03:54.267Z,19.73
2018-04-29T06:06:23.234Z,15.40
2018-04-29T06:08:53.926Z,16.57
2018-04-29T06:11:25.982Z,12.07
2018-04-29T06:13:55.746Z,17.07
2018-04-29T06:16:26.560Z,15.93
2018-04-29T06:18:57.506Z,12.30
2018-04-29T06:21:28.249Z,12.70
2018-04-29T06:23:58.216Z,12.60
2018-04-29T06:26:27.965Z,15.07
2018-04-29T06:28:58.934Z,11.50
2018-04-29T06:31:28.683Z,14.43
2018-04-29T06:33:58.972Z,13.90
2018-04-29T06:36:28.655Z,14.23
2018-04-29T06:38:58.753Z,11.97
2018-04-29T06:41:28.545Z,11.57
2018-04-29T06:43:58.266Z,10.03
2018-04-29T06:46:28.078Z,11.00
2018-04-29T06:48:57.744Z,9.20
2018-04-29T06:51:28.738Z,8.43
2018-04-29T06:53:58.413Z,7.40
2018-04-29T06:56:27.373Z,7.90
2018-04-29T06:58:57.445Z,6.23
2018-04-29T07:01:26.360Z,8.00
2018-04-29T07:03:56.643Z,6.67
2018-04-29T07:06:25.334Z,6.40
2018-04-29T07:08:54.281Z,5.80
2018-04-29T07:11:25.913Z,6.30
2018-04-29T07:13:56.846Z,6.20
2018-04-29T07:16:26.307Z,6.93
2018-04-29T07:18:55.230Z,7.30
2018-04-29T07:21:27.576Z,6.03
2018-04-29T07:23:57.272Z,9.77
2018-04-29T07:26:26.682Z,7.43
2018-04-29T07:28:56.990Z,7.27
2018-04-29T07:31:26.448Z,5.27
2018-04-29T07:33:55.993Z,8.07
2018-04-29T07:36:24.907Z,8.10
2018-04-29T07:38:53.813Z,7.40
2018-04-29T07:41:25.237Z,7.37
2018-04-29T07:43:54.155Z,7.10
2018-04-29T07:46:24.598Z,6.37
2018-04-29T07:48:54.843Z,7.80
2018-04-29T07:51:23.777Z,6.63
2018-04-29T07:53:52.716Z,6.37
2018-04-29T07:56:22.560Z,6.67
2018-04-29T07:58:51.491Z,4.73
2018-04-29T08:01:20.893Z,5.17
2018-04-29T08:03:51.310Z,5.80
2018-04-29T08:06:21.593Z,6.40
2018-04-29T08:08:52.027Z,4.70
2018-04-29T08:11:22.776Z,5.40
2018-04-29T08:13:51.701Z,6.20
2018-04-29T08:16:20.599Z,5.20
2018-04-29T08:18:49.580Z,5.03
2018-04-29T08:21:18.875Z,5.10
2018-04-29T08:23:49.150Z,6.37
2018-04-29T08:26:19.193Z,6.43
2018-04-29T08:28:48.309Z,5.63
2018-04-29T08:31:17.637Z,5.37
2018-04-29T08:33:46.559Z,7.60
2018-04-29T08:36:15.513Z,5.67
2018-04-29T08:38:44.409Z,6.80
2018-04-29T08:41:13.325Z,7.47
2018-04-29T08:43:42.249Z,6.00
2018-04-29T08:46:11.557Z,6.70
2018-04-29T08:48:41.295Z,6.03
2018-04-29T08:51:11.679Z,8.90
2018-04-29T08:53:41.361Z,5.30
2018-04-29T08:56:11.627Z,7.87
2018-04-29T08:58:41.128Z,5.83
2018-04-29T09:01:10.122Z,5.93
2018-04-29T09:03:39.469Z,6.30
2018-04-29T09:06:10.262Z,7.40
2018-04-29T09:08:39.956Z,6.00
2018-04-29T09:11:08.892Z,5.60
2018-04-29T09:13:39.339Z,6.60
2018-04-29T09:16:09.606Z,4.73
2018-04-29T09:18:39.824Z,7.47
2018-04-29T09:21:08.729Z,5.97
2018-04-29T09:23:39.169Z,6.93
2018-04-29T09:26:09.431Z,7.53
2018-04-29T09:28:38.933Z,7.87
2018-04-29T09:31:07.875Z,5.97
2018-04-29T09:33:36.785Z,8.87
2018-04-29T09:36:05.713Z,6.90
2018-04-29T09:38:36.114Z,7.90
2018-04-29T09:41:05.039Z,6.73
2018-04-29T09:43:35.387Z,7.23
2018-04-29T09:46:04.996Z,7.57
2018-04-29T09:48:34.665Z,6.97
2018-04-29T09:51:03.555Z,8.47
2018-04-29T09:53:33.846Z,7.70
2018-04-29T09:56:02.950Z,8.40
2018-04-29T09:58:33.261Z,5.70
2018-04-29T10:01:02.055Z,7.83
2018-04-29T10:03:31.666Z,8.17
2018-04-29T10:06:00.576Z,6.87
2018-04-29T10:08:29.480Z,8.93
2018-04-29T10:10:59.758Z,8.60
2018-04-29T10:13:29.824Z,7.77
2018-04-29T10:15:59.883Z,9.40
2018-04-29T10:18:28.824Z,7.30
2018-04-29T10:20:58.534Z,9.77
2018-04-29T10:23:27.458Z,7.27
2018-04-29T10:25:58.330Z,8.03
2018-04-29T10:28:28.394Z,9.70
2018-04-29T10:30:58.460Z,10.23
2018-04-29T10:33:27.411Z,11.60
2018-04-29T10:35:57.473Z,8.93
2018-04-29T10:38:26.414Z,8.40
2018-04-29T10:40:55.319Z,8.23
2018-04-29T10:43:25.605Z,8.80
2018-04-29T10:45:55.655Z,9.00
2018-04-29T10:48:24.591Z,7.60
2018-04-29T10:50:55.055Z,9.73
2018-04-29T10:53:25.308Z,7.93
2018-04-29T10:55:55.481Z,9.27
2018-04-29T10:58:24.202Z,8.87
2018-04-29T11:00:53.894Z,10.23
2018-04-29T11:03:25.356Z,8.60
2018-04-29T11:05:54.843Z,8.30
2018-04-29T11:08:25.112Z,8.47
2018-04-29T11:10:53.869Z,8.27
2018-04-29T11:13:22.798Z,10.83
2018-04-29T11:15:53.232Z,8.53
2018-04-29T11:18:22.189Z,6.50
2018-04-29T11:20:52.471Z,8.10
2018-04-29T11:23:22.755Z,7.73
2018-04-29T11:25:52.461Z,6.97
2018-04-29T11:28:21.474Z,6.63
2018-04-29T11:30:50.378Z,12.13
2018-04-29T11:33:19.308Z,7.03
2018-04-29T11:35:49.407Z,10.40
2018-04-29T11:38:18.323Z,7.70
2018-04-29T11:40:47.229Z,8.17
2018-04-29T11:43:16.187Z,7.67
2018-04-29T11:45:45.112Z,8.27
2018-04-29T11:48:15.186Z,7.60
2018-04-29T11:50:44.886Z,7.20
2018-04-29T11:53:15.651Z,6.60
2018-04-29T11:55:45.313Z,6.47
2018-04-29T11:58:15.031Z,7.30
2018-04-29T12:00:44.048Z,7.03
2018-04-29T12:03:13.566Z,7.47
2018-04-29T12:05:44.840Z,8.23
2018-04-29T12:08:13.832Z,6.07
2018-04-29T12:10:43.235Z,8.27
2018-04-29T12:13:12.598Z,7.67
2018-04-29T12:15:44.095Z,7.20
2018-04-29T12:18:14.100Z,8.57
2018-04-29T12:20:43.052Z,7.00
2018-04-29T12:23:12.777Z,8.03
2018-04-29T12:25:41.972Z,7.60
2018-04-29T12:28:11.967Z,8.03
2018-04-29T12:30:40.870Z,6.47
2018-04-29T12:33:10.548Z,8.13
2018-04-29T12:35:40.241Z,7.83
2018-04-29T12:38:09.153Z,10.30
2018-04-29T12:40:38.076Z,9.60
2018-04-29T12:43:06.988Z,8.13
2018-04-29T12:45:35.989Z,10.50
2018-04-29T12:48:04.926Z,13.57
2018-04-29T12:50:34.236Z,10.40
2018-04-29T12:53:03.194Z,13.33
2018-04-29T12:55:32.122Z,14.17
2018-04-29T12:58:01.569Z,13.63
2018-04-29T13:00:31.234Z,15.57
2018-04-29T13:03:01.170Z,13.10
2018-04-29T13:05:30.119Z,14.50
2018-04-29T13:07:59.809Z,14.13
2018-04-29T13:10:30.086Z,12.80
2018-04-29T13:12:59.181Z,13.40
2018-04-29T13:15:28.116Z,11.57
2018-04-29T13:17:57.029Z,11.30
2018-04-29T13:20:26.704Z,11.40
2018-04-29T13:22:55.637Z,11.47
2018-04-29T13:25:27.233Z,12.23
2018-04-29T13:27:56.903Z,11.60
2018-04-29T13:30:26.737Z,9.07
2018-04-29T13:32:55.669Z,8.50
2018-04-29T13:35:24.692Z,7.67
2018-04-29T13:37:53.621Z,10.40
2018-04-29T13:40:22.548Z,10.27
2018-04-29T13:42:52.268Z,12.33
2018-04-29T13:45:21.221Z,10.00
2018-04-29T13:47:50.535Z,12.13
2018-04-29T13:50:20.259Z,10.30
2018-04-29T13:52:49.579Z,11.90
2018-04-29T13:55:19.275Z,9.03
2018-04-29T13:57:48.589Z,8.17
2018-04-29T14:00:17.509Z,9.53
2018-04-29T14:02:47.766Z,8.27
2018-04-29T14:05:16.894Z,8.37
2018-04-29T14:07:46.220Z,9.47
2018-04-29T14:10:15.954Z,7.70
2018-04-29T14:12:45.613Z,9.50
2018-04-29T14:15:14.937Z,9.60
2018-04-29T14:17:43.845Z,10.97
2018-04-29T14:20:13.191Z,9.93
2018-04-29T14:22:42.857Z,11.33
2018-04-29T14:25:11.787Z,11.47
2018-04-29T14:27:41.495Z,9.87
2018-04-29T14:30:10.389Z,9.97
2018-04-29T14:32:40.101Z,11.70
2018-04-29T14:35:09.795Z,9.97
2018-04-29T14:37:39.489Z,9.83
2018-04-29T14:40:09.190Z,9.27
2018-04-29T14:42:38.102Z,10.83
2018-04-29T14:45:07.802Z,10.10
2018-04-29T14:47:36.720Z,10.50
2018-04-29T14:50:05.677Z,12.30
2018-04-29T14:52:35.118Z,10.67
2018-04-29T14:55:04.917Z,12.97
2018-04-29T14:57:35.174Z,10.73
2018-04-29T15:00:04.647Z,10.50
2018-04-29T15:02:33.622Z,10.97
2018-04-29T15:05:03.223Z,11.30
2018-04-29T15:07:33.328Z,12.60
2018-04-29T15:10:03.565Z,13.00
2018-04-29T15:12:33.904Z,12.37
2018-04-29T15:15:02.646Z,12.87
2018-04-29T15:17:31.563Z,13.40
2018-04-29T15:20:01.339Z,11.83
2018-04-29T15:22:30.824Z,11.30
2018-04-29T15:25:00.519Z,11.10
2018-04-29T15:27:31.039Z,13.73
2018-04-29T15:30:00.012Z,14.27
2018-04-29T15:32:29.735Z,11.27
2018-04-29T15:34:59.414Z,12.10
2018-04-29T15:37:28.431Z,13.23
2018-04-29T15:39:58.503Z,12.80
2018-04-29T15:42:27.451Z,11.30
2018-04-29T15:44:57.035Z,14.67
2018-04-29T15:47:26.752Z,15.90
2018-04-29T15:49:56.948Z,13.47
2018-04-29T15:52:26.682Z,12.70
2018-04-29T15:54:57.237Z,13.07
2018-04-29T15:57:28.657Z,11.70
2018-04-29T15:59:59.277Z,11.93
2018-04-29T16:02:28.185Z,12.73
2018-04-29T16:04:57.525Z,11.93
2018-04-29T16:07:27.628Z,11.73
2018-04-29T16:09:56.548Z,11.43
2018-04-29T16:12:25.526Z,12.17
2018-04-29T16:14:54.472Z,13.43
2018-04-29T16:17:24.266Z,12.10
2018-04-29T16:19:54.021Z,13.67
2018-04-29T16:22:22.934Z,12.33
2018-04-29T16:24:53.112Z,16.20
2018-04-29T16:27:23.573Z,12.93
2018-04-29T16:29:54.572Z,12.50
2018-04-29T16:32:24.078Z,10.60
2018-04-29T16:34:53.032Z,11.10
2018-04-29T16:37:23.099Z,12.13
2018-04-29T16:39:52.064Z,12.57
2018-04-29T16:42:22.436Z,13.57
2018-04-29T16:44:51.208Z,15.73
2018-04-29T16:47:20.127Z,13.83
2018-04-29T16:49:49.782Z,15.30
2018-04-29T16:52:19.506Z,11.10
2018-04-29T16:54:49.252Z,14.80
2018-04-29T16:57:18.181Z,12.53
2018-04-29T16:59:47.181Z,13.60
2018-04-29T17:02:17.662Z,13.13
2018-04-29T17:04:47.956Z,13.57
2018-04-29T17:07:18.664Z,11.70
2018-04-29T17:09:47.653Z,14.27
2018-04-29T17:12:17.850Z,14.87
2018-04-29T17:14:47.583Z,14.80
2018-04-29T17:17:18.203Z,15.63
2018-04-29T17:19:48.228Z,13.47
2018-04-29T17:22:18.739Z,14.60
2018-04-29T17:24:48.437Z,16.90
2018-04-29T17:27:17.391Z,13.80
2018-04-29T17:29:46.350Z,13.23
2018-04-29T17:32:17.580Z,12.00
2018-04-29T17:34:47.289Z,14.87
2018-04-29T17:37:17.799Z,12.70
2018-04-29T17:39:48.095Z,13.20
2018-04-29T17:42:17.191Z,12.67
2018-04-29T17:44:46.179Z,11.90
2018-04-29T17:47:15.109Z,16.20
2018-04-29T17:49:44.048Z,16.60
2018-04-29T17:52:13.017Z,16.47
2018-04-29T17:54:41.949Z,14.87
2018-04-29T17:57:10.928Z,16.17
2018-04-29T17:59:39.889Z,14.50
2018-04-29T18:02:09.218Z,15.10
2018-04-29T18:04:39.540Z,15.40
2018-04-29T18:07:08.322Z,12.83
2018-04-29T18:09:37.341Z,13.70
2018-04-29T18:12:08.339Z,15.23
2018-04-29T18:14:37.545Z,15.13
2018-04-29T18:17:07.868Z,13.30
2018-04-29T18:19:36.609Z,13.93
2018-04-29T18:22:06.349Z,14.00
2018-04-29T18:24:36.051Z,13.10
2018-04-29T18:27:05.789Z,15.10
2018-04-29T18:29:34.729Z,19.27
2018-04-29T18:32:03.697Z,14.97
2018-04-29T18:34:33.791Z,14.57
2018-04-29T18:37:02.771Z,13.67
2018-04-29T18:39:33.041Z,15.33
2018-04-29T18:42:03.532Z,14.70
2018-04-29T18:44:32.525Z,16.73
2018-04-29T18:47:01.468Z,15.90
2018-04-29T18:49:31.626Z,14.87
2018-04-29T18:52:00.609Z,15.40
2018-04-29T18:54:29.572Z,16.00
2018-04-29T18:56:59.317Z,16.07
2018-04-29T18:59:29.119Z,13.50
2018-04-29T19:02:00.197Z,13.70
2018-04-29T19:04:29.326Z,16.43
2018-04-29T19:07:00.389Z,20.13
2018-04-29T19:09:30.125Z,16.70
2018-04-29T19:11:59.887Z,13.73
2018-04-29T19:14:29.629Z,17.53
2018-04-29T19:16:58.589Z,12.20
2018-04-29T19:19:29.015Z,18.53
2018-04-29T19:21:59.059Z,14.13
2018-04-29T19:24:28.757Z,14.90
2018-04-29T19:26:59.254Z,14.43
2018-04-29T19:29:28.198Z,14.43
2018-04-29T19:31:57.586Z,15.90
2018-04-29T19:34:28.188Z,15.50
2018-04-29T19:36:58.120Z,16.90
2018-04-29T19:39:30.889Z,14.33
2018-04-29T19:42:00.706Z,15.33
2018-04-29T19:44:30.932Z,16.70
2018-04-29T19:47:00.673Z,13.97
2018-04-29T19:49:29.625Z,17.57
2018-04-29T19:51:58.890Z,14.37
2018-04-29T19:54:28.857Z,15.00
2018-04-29T19:56:58.290Z,15.47
2018-04-29T19:59:28.620Z,15.60
2018-04-29T20:01:57.384Z,12.53
2018-04-29T20:04:28.755Z,15.93
2018-04-29T20:06:57.713Z,12.80
2018-04-29T20:09:26.703Z,15.07
2018-04-29T20:11:55.670Z,11.60
2018-04-29T20:14:25.425Z,13.10
2018-04-29T20:16:54.389Z,13.43
2018-04-29T20:19:23.362Z,19.53
2018-04-29T20:21:54.087Z,16.57
2018-04-29T20:24:25.069Z,16.97
2018-04-29T20:26:54.583Z,13.83
2018-04-29T20:29:23.543Z,16.60
2018-04-29T20:31:52.524Z,13.10
2018-04-29T20:34:21.877Z,13.20
2018-04-29T20:36:51.587Z,13.40
2018-04-29T20:39:21.911Z,13.87
2018-04-29T20:41:50.629Z,13.20
2018-04-29T20:44:20.439Z,16.03
2018-04-29T20:46:49.339Z,12.50
2018-04-29T20:49:19.060Z,13.40
2018-04-29T20:51:48.399Z,16.70
2018-04-29T20:54:17.742Z,13.10
2018-04-29T20:56:47.460Z,12.60
2018-04-29T20:59:17.185Z,12.07
2018-04-29T21:01:47.589Z,12.23
2018-04-29T21:04:16.337Z,15.93
2018-04-29T21:06:45.703Z,13.93
2018-04-29T21:09:14.667Z,14.10
2018-04-29T21:11:43.631Z,14.00
2018-04-29T21:14:13.378Z,14.07
2018-04-29T21:16:43.061Z,17.97
2018-04-29T21:19:13.523Z,11.30
2018-04-29T21:21:43.217Z,12.33
2018-04-29T21:24:12.553Z,13.80
2018-04-29T21:26:42.255Z,10.70
2018-04-29T21:29:12.354Z,13.57
2018-04-29T21:31:42.421Z,14.90
2018-04-29T21:34:11.793Z,14.53
2018-04-29T21:36:41.116Z,14.70
2018-04-29T21:39:10.065Z,14.10
2018-04-29T21:41:40.329Z,13.03
2018-04-29T21:44:09.071Z,14.00
2018-04-29T21:46:38.775Z,13.77
2018-04-29T21:49:08.499Z,12.93
2018-04-29T21:51:38.209Z,14.70
2018-04-29T21:54:07.127Z,13.60
2018-04-29T21:56:36.459Z,15.37
2018-04-29T21:59:06.165Z,17.30
2018-04-29T22:01:35.101Z,14.00
2018-04-29T22:04:04.033Z,13.53
2018-04-29T22:06:32.943Z,13.67
2018-04-29T22:09:01.891Z,13.30
2018-04-29T22:11:30.811Z,16.10
2018-04-29T22:14:00.519Z,14.20
2018-04-29T22:16:30.951Z,16.07
2018-04-29T22:19:00.668Z,16.10
2018-04-29T22:21:29.618Z,15.67
2018-04-29T22:23:58.557Z,16.33
2018-04-29T22:26:29.314Z,13.00
2018-04-29T22:28:59.363Z,18.20
2018-04-29T22:31:28.327Z,14.53
2018-04-29T22:33:57.301Z,16.67
2018-04-29T22:36:26.665Z,17.27
2018-04-29T22:38:56.355Z,12.70
2018-04-29T22:41:26.933Z,14.90
2018-04-29T22:43:56.659Z,14.23
2018-04-29T22:46:27.397Z,17.57
2018-04-29T22:48:56.379Z,15.23
2018-04-29T22:51:25.713Z,17.10
2018-04-29T22:53:54.645Z,16.57
2018-04-29T22:56:24.923Z,15.13
2018-04-29T22:58:53.642Z,16.80
2018-04-29T23:01:22.578Z,16.03
2018-04-29T23:03:51.537Z,17.10
2018-04-29T23:06:20.449Z,16.03
2018-04-29T23:08:50.521Z,16.60
2018-04-29T23:11:19.449Z,16.80
2018-04-29T23:13:49.525Z,15.60
2018-04-29T23:16:19.225Z,20.83
2018-04-29T23:18:48.787Z,15.73
2018-04-29T23:21:18.460Z,17.43
2018-04-29T23:23:48.755Z,15.80
2018-04-29T23:26:18.597Z,15.93
2018-04-29T23:28:48.306Z,17.13
2018-04-29T23:31:17.223Z,14.10
2018-04-29T23:33:47.282Z,16.30
2018-04-29T23:36:17.572Z,16.43
2018-04-29T23:38:47.262Z,15.33
2018-04-29T23:41:16.595Z,18.30
2018-04-29T23:43:45.517Z,18.37
2018-04-29T23:46:15.818Z,14.97
2018-04-29T23:48:46.025Z,13.40
2018-04-29T23:51:15.733Z,18.53
2018-04-29T23:53:45.427Z,22.17
2018-04-29T23:56:15.135Z,17.70
2018-04-29T23:58:45.547Z,15.20
